createdAt,value
2022-08-05T00:01:35.602Z,89.00
2022-08-05T00:04:16.734Z,89.50
2022-08-05T00:06:47.119Z,89.80
2022-08-05T00:09:21.036Z,89.90
2022-08-05T00:11:55.618Z,90.00
2022-08-05T00:14:29.227Z,89.70
2022-08-05T00:16:58.009Z,89.10
2022-08-05T00:19:33.337Z,90.20
2022-08-05T00:22:11.065Z,90.40
2022-08-05T00:24:42.157Z,90.20
2022-08-05T00:27:16.794Z,90.40
2022-08-05T00:29:45.068Z,90.40
2022-08-05T00:32:15.473Z,90.50
2022-08-05T00:35:03.456Z,90.60
2022-08-05T00:37:51.376Z,90.30
2022-08-05T00:40:26.827Z,90.00
2022-08-05T00:42:57.897Z,90.60
2022-08-05T00:45:38.014Z,90.70
2022-08-05T00:48:12.170Z,90.60
2022-08-05T00:50:44.153Z,90.80
2022-08-05T00:54:00.643Z,91.00
2022-08-05T00:56:02.561Z,90.50
2022-08-05T00:58:30.667Z,90.50
2022-08-05T01:00:58.994Z,90.70
2022-08-05T01:03:31.101Z,90.90
2022-08-05T01:06:02.611Z,91.00
2022-08-05T01:08:42.951Z,91.20
2022-08-05T01:11:22.089Z,91.30
2022-08-05T01:14:08.473Z,91.40
2022-08-05T01:16:44.135Z,91.70
2022-08-05T01:19:56.547Z,91.70
2022-08-05T01:22:45.312Z,91.60
2022-08-05T01:25:40.999Z,91.50
2022-08-05T01:28:25.879Z,91.40
2022-08-05T01:30:58.060Z,91.40
2022-08-05T01:33:35.326Z,91.60
2022-08-05T01:36:13.229Z,91.80
2022-08-05T01:38:45.778Z,91.90
2022-08-05T01:41:20.983Z,91.80
2022-08-05T01:43:52.287Z,92.00
2022-08-05T01:46:42.019Z,92.20
2022-08-05T01:49:23.840Z,91.40
2022-08-05T01:51:58.392Z,91.80
2022-08-05T01:54:31.215Z,92.30
2022-08-05T01:58:10.035Z,92.50
2022-08-05T01:59:53.651Z,92.60
2022-08-05T02:02:28.464Z,92.40
2022-08-05T02:05:01.412Z,92.20
2022-08-05T02:07:32.135Z,92.20
2022-08-05T02:10:02.206Z,92.50
2022-08-05T02:12:41.058Z,92.70
2022-08-05T02:15:14.734Z,92.70
2022-08-05T02:18:30.759Z,92.80
2022-08-05T02:20:46.955Z,92.80
2022-08-05T02:23:18.758Z,92.60
2022-08-05T02:25:49.166Z,92.80
2022-08-05T02:28:29.067Z,93.00
2022-08-05T02:31:04.306Z,93.10
2022-08-05T02:33:38.925Z,93.10
2022-08-05T02:36:13.716Z,93.00
2022-08-05T02:38:53.523Z,92.90
2022-08-05T02:41:28.909Z,92.90
2022-08-05T02:44:13.505Z,93.10
2022-08-05T02:46:59.889Z,93.20
2022-08-05T02:49:36.048Z,93.40
2022-08-05T02:52:11.437Z,93.40
2022-08-05T02:54:42.786Z,93.50
2022-08-05T02:58:10.840Z,93.60
2022-08-05T03:00:12.691Z,93.60
2022-08-05T03:02:44.976Z,93.70
2022-08-05T03:05:15.056Z,93.80
2022-08-05T03:08:00.559Z,93.90
2022-08-05T03:10:32.673Z,93.80
2022-08-05T03:15:28.575Z,93.80
2022-08-05T03:17:59.484Z,93.80
2022-08-05T03:20:27.669Z,93.90
2022-08-05T03:22:58.042Z,93.90
2022-08-05T03:25:32.463Z,94.00
2022-08-05T03:28:03.384Z,94.10
2022-08-05T03:30:34.149Z,94.30
2022-08-05T03:33:06.302Z,94.30
2022-08-05T03:35:41.130Z,94.30
2022-08-05T03:38:11.808Z,94.10
2022-08-05T03:40:45.304Z,94.20
2022-08-05T03:44:08.996Z,94.20
2022-08-05T03:46:08.299Z,94.10
2022-08-05T03:48:37.820Z,94.00
2022-08-05T03:52:48.930Z,93.90
2022-08-05T03:56:01.562Z,93.90
2022-08-05T03:56:58.895Z,94.20
2022-08-05T03:59:46.763Z,94.30
2022-08-05T04:02:38.487Z,94.40
2022-08-05T04:05:10.371Z,94.30
2022-08-05T04:07:57.564Z,94.10
2022-08-05T04:10:27.530Z,94.00
2022-08-05T04:12:58.735Z,94.10
2022-08-05T04:15:27.980Z,94.10
2022-08-05T04:18:07.247Z,94.00
2022-08-05T04:20:37.646Z,93.90
2022-08-05T04:23:12.650Z,94.00
2022-08-05T04:25:57.276Z,94.20
2022-08-05T04:28:31.001Z,94.20
2022-08-05T04:31:00.804Z,94.30
2022-08-05T04:34:18.103Z,94.40
2022-08-05T04:36:46.241Z,94.40
2022-08-05T04:39:07.497Z,94.40
2022-08-05T04:41:36.930Z,94.40
2022-08-05T04:44:09.348Z,94.60
2022-08-05T04:46:38.735Z,94.60
2022-08-05T04:49:12.309Z,94.80
2022-08-05T04:51:44.732Z,94.60
2022-08-05T04:54:14.691Z,94.30
2022-08-05T04:56:43.687Z,94.20
2022-08-05T04:59:21.490Z,93.80
2022-08-05T05:02:07.155Z,94.30
2022-08-05T05:04:43.867Z,94.80
2022-08-05T05:07:17.482Z,94.80
2022-08-05T05:09:45.659Z,94.80
2022-08-05T05:12:13.753Z,94.60
2022-08-05T05:14:49.578Z,94.40
2022-08-05T05:17:23.911Z,94.40
2022-08-05T05:19:56.685Z,94.40
2022-08-05T05:22:26.979Z,94.70
2022-08-05T05:24:58.354Z,94.60
2022-08-05T05:27:44.309Z,94.60
2022-08-05T05:30:30.802Z,94.50
2022-08-05T05:33:03.909Z,94.40
2022-08-05T05:35:44.773Z,94.40
2022-08-05T05:38:14.824Z,94.40
2022-08-05T05:40:51.547Z,94.50
2022-08-05T05:43:27.918Z,94.50
2022-08-05T05:46:15.673Z,94.30
2022-08-05T05:48:46.308Z,94.40
2022-08-05T05:51:21.336Z,93.90
2022-08-05T05:53:57.392Z,93.90
2022-08-05T05:56:31.660Z,93.70
2022-08-05T05:59:05.113Z,93.70
2022-08-05T06:01:38.131Z,93.80
2022-08-05T06:04:12.196Z,93.80
2022-08-05T06:06:42.643Z,93.80
2022-08-05T06:09:17.485Z,94.00
2022-08-05T06:12:01.908Z,94.00
2022-08-05T06:14:31.491Z,93.80
2022-08-05T06:17:02.021Z,93.30
2022-08-05T06:19:56.775Z,93.40
2022-08-05T06:22:29.571Z,93.10
2022-08-05T06:24:59.376Z,93.50
2022-08-05T06:28:11.135Z,93.40
2022-08-05T06:30:20.153Z,93.60
2022-08-05T06:32:50.729Z,93.50
2022-08-05T06:36:03.702Z,93.40
2022-08-05T06:38:11.759Z,93.30
2022-08-05T06:40:44.487Z,93.30
2022-08-05T06:43:58.489Z,93.30
2022-08-05T06:46:06.551Z,93.00
2022-08-05T06:48:52.830Z,93.00
2022-08-05T06:51:29.716Z,92.80
2022-08-05T06:53:59.025Z,92.40
2022-08-05T06:56:28.649Z,92.30
2022-08-05T06:58:56.705Z,92.10
2022-08-05T07:01:31.985Z,92.10
2022-08-05T07:04:02.297Z,91.60
2022-08-05T07:06:32.018Z,91.70
2022-08-05T07:09:04.357Z,91.50
2022-08-05T07:11:36.906Z,91.40
2022-08-05T07:14:30.179Z,91.50
2022-08-05T07:18:01.761Z,91.00
2022-08-05T07:22:42.450Z,90.80
2022-08-05T07:25:54.805Z,90.80
2022-08-05T07:28:05.935Z,90.50
2022-08-05T07:30:39.836Z,90.40
2022-08-05T07:33:16.812Z,90.10
2022-08-05T07:36:04.527Z,90.10
2022-08-05T07:38:42.807Z,90.10
2022-08-05T07:42:08.072Z,90.10
2022-08-05T07:44:19.315Z,90.00
2022-08-05T07:46:50.607Z,89.40
2022-08-05T07:49:20.511Z,88.90
2022-08-05T07:51:54.206Z,88.90
2022-08-05T07:54:30.806Z,89.00
2022-08-05T07:57:41.800Z,89.30
2022-08-05T07:59:51.275Z,87.40
2022-08-05T08:02:19.422Z,88.00
2022-08-05T08:04:54.837Z,87.70
2022-08-05T08:07:23.493Z,86.00
2022-08-05T08:09:55.101Z,85.70
2022-08-05T08:12:33.409Z,85.60
2022-08-05T08:15:09.727Z,86.00
2022-08-05T08:17:44.001Z,85.10
2022-08-05T08:20:42.588Z,84.20
2022-08-05T08:23:07.553Z,83.00
2022-08-05T08:26:00.393Z,82.70
2022-08-05T08:28:36.746Z,82.20
2022-08-05T08:31:21.743Z,82.30
2022-08-05T08:33:51.580Z,81.90
2022-08-05T08:36:39.240Z,81.80
2022-08-05T08:39:15.648Z,81.00
2022-08-05T08:41:52.697Z,79.20
2022-08-05T08:45:16.839Z,80.20
2022-08-05T08:48:06.179Z,80.00
2022-08-05T08:50:31.212Z,79.00
2022-08-05T08:53:07.907Z,78.20
2022-08-05T08:56:03.653Z,77.60
2022-08-05T08:58:37.547Z,77.50
2022-08-05T09:01:15.838Z,77.20
2022-08-05T09:03:55.300Z,76.20
2022-08-05T09:06:29.344Z,75.40
2022-08-05T09:08:59.560Z,75.20
2022-08-05T09:11:52.941Z,74.60
2022-08-05T09:14:58.677Z,75.00
2022-08-05T09:17:08.051Z,74.80
2022-08-05T09:19:55.394Z,75.50
2022-08-05T09:22:32.011Z,74.60
2022-08-05T09:25:13.782Z,74.20
2022-08-05T09:28:03.800Z,74.70
2022-08-05T09:30:35.229Z,73.90
2022-08-05T09:33:05.446Z,73.40
2022-08-05T09:35:34.963Z,72.70
2022-08-05T09:38:16.304Z,72.80
2022-08-05T09:40:53.929Z,72.70
2022-08-05T09:43:40.578Z,72.30
2022-08-05T09:46:27.249Z,71.80
2022-08-05T09:49:06.754Z,71.60
2022-08-05T09:51:40.000Z,71.20
2022-08-05T09:54:10.059Z,72.00
2022-08-05T09:56:40.477Z,70.40
2022-08-05T09:59:19.760Z,69.20
2022-08-05T10:01:48.387Z,70.20
2022-08-05T10:04:38.516Z,70.00
2022-08-05T10:07:21.082Z,69.60
2022-08-05T10:10:14.403Z,68.40
2022-08-05T10:12:49.768Z,68.60
2022-08-05T10:15:21.578Z,68.90
2022-08-05T10:18:08.811Z,69.00
2022-08-05T10:20:40.082Z,69.00
2022-08-05T10:23:34.264Z,69.70
2022-08-05T10:26:01.964Z,69.60
2022-08-05T10:28:33.716Z,69.50
2022-08-05T10:32:49.648Z,69.70
2022-08-05T10:33:54.262Z,69.70
2022-08-05T10:36:23.572Z,69.50
2022-08-05T10:39:04.990Z,69.60
2022-08-05T10:41:44.869Z,69.10
2022-08-05T10:44:19.302Z,68.70
2022-08-05T10:46:50.967Z,68.80
2022-08-05T10:49:26.593Z,68.60
2022-08-05T10:52:00.180Z,68.10
2022-08-05T10:54:56.318Z,67.90
2022-08-05T10:57:31.992Z,66.80
2022-08-05T11:00:19.568Z,67.30
2022-08-05T11:03:25.434Z,67.20
2022-08-05T11:06:16.055Z,67.10
2022-08-05T11:09:32.115Z,67.50
2022-08-05T11:12:45.335Z,67.20
2022-08-05T11:15:22.379Z,67.70
2022-08-05T11:17:59.953Z,67.70
2022-08-05T11:20:46.214Z,67.60
2022-08-05T11:24:03.784Z,67.00
2022-08-05T11:26:32.077Z,67.10
2022-08-05T11:29:13.983Z,66.80
2022-08-05T11:31:56.968Z,66.50
2022-08-05T11:34:50.858Z,66.30
2022-08-05T11:38:30.350Z,65.70
2022-08-05T11:41:35.578Z,65.60
2022-08-05T11:44:04.763Z,65.80
2022-08-05T11:46:36.873Z,65.20
2022-08-05T11:49:10.028Z,64.30
2022-08-05T11:51:43.721Z,64.60
2022-08-05T11:54:33.674Z,64.10
2022-08-05T11:57:08.418Z,63.90
2022-08-05T11:59:54.758Z,63.80
2022-08-05T12:02:30.134Z,63.60
2022-08-05T12:05:06.884Z,63.10
2022-08-05T12:08:10.443Z,63.20
2022-08-05T12:10:42.883Z,62.80
2022-08-05T12:13:28.009Z,62.70
2022-08-05T12:16:14.693Z,62.80
2022-08-05T12:18:52.466Z,62.40
2022-08-05T12:21:26.788Z,61.50
2022-08-05T12:24:06.896Z,61.30
2022-08-05T12:26:36.442Z,60.50
2022-08-05T12:29:09.842Z,61.10
2022-08-05T12:31:53.555Z,60.20
2022-08-05T12:34:24.027Z,60.30
2022-08-05T12:36:57.420Z,60.10
2022-08-05T12:39:28.172Z,60.10
2022-08-05T12:42:14.665Z,59.70
2022-08-05T12:44:44.567Z,59.90
2022-08-05T12:47:17.175Z,58.80
2022-08-05T12:50:03.389Z,58.80
2022-08-05T12:52:41.610Z,58.50
2022-08-05T12:55:21.967Z,58.30
2022-08-05T12:58:52.426Z,57.60
2022-08-05T13:02:04.265Z,56.60
2022-08-05T13:03:33.423Z,57.30
2022-08-05T13:06:03.006Z,57.00
2022-08-05T13:08:32.992Z,56.40
2022-08-05T13:11:02.434Z,56.80
2022-08-05T13:14:04.639Z,56.70
2022-08-05T13:16:25.128Z,56.70
2022-08-05T13:18:58.875Z,56.80
2022-08-05T13:21:28.515Z,56.80
2022-08-05T13:24:08.930Z,56.50
2022-08-05T13:26:41.655Z,56.40
2022-08-05T13:29:37.573Z,56.60
2022-08-05T13:32:06.704Z,55.40
2022-08-05T13:34:35.224Z,55.90
2022-08-05T13:37:07.331Z,55.30
2022-08-05T13:40:13.838Z,55.40
2022-08-05T13:42:27.281Z,54.50
2022-08-05T13:44:56.379Z,54.30
2022-08-05T13:47:35.809Z,55.50
2022-08-05T13:50:16.905Z,54.80
2022-08-05T13:52:45.285Z,53.70
2022-08-05T13:55:40.918Z,54.40
2022-08-05T13:58:07.548Z,52.90
2022-08-05T14:00:39.431Z,53.80
2022-08-05T14:03:09.822Z,53.80
2022-08-05T14:06:04.922Z,53.80
2022-08-05T14:08:27.656Z,53.70
2022-08-05T14:11:20.623Z,54.30
2022-08-05T14:13:54.930Z,54.30
2022-08-05T14:16:26.044Z,54.30
2022-08-05T14:18:54.144Z,53.30
2022-08-05T14:22:08.545Z,53.20
2022-08-05T14:24:12.309Z,51.70
2022-08-05T14:27:08.571Z,52.30
2022-08-05T14:29:31.287Z,53.00
2022-08-05T14:32:02.558Z,52.30
2022-08-05T14:34:40.443Z,49.70
2022-08-05T14:37:08.806Z,48.40
2022-08-05T14:39:49.442Z,47.40
2022-08-05T14:42:26.229Z,45.60
2022-08-05T14:44:54.367Z,44.40
2022-08-05T14:48:02.724Z,43.10
2022-08-05T14:50:18.454Z,42.10
2022-08-05T14:52:58.349Z,41.90
2022-08-05T14:55:38.501Z,41.10
2022-08-05T14:58:13.704Z,40.70
2022-08-05T15:00:58.476Z,40.90
2022-08-05T15:03:39.141Z,40.30
2022-08-05T15:06:14.901Z,40.00
2022-08-05T15:08:59.654Z,39.60
2022-08-05T15:11:52.642Z,39.10
2022-08-05T15:14:35.083Z,38.80
2022-08-05T15:17:45.059Z,38.40
2022-08-05T15:19:58.310Z,38.10
2022-08-05T15:22:27.871Z,38.10
2022-08-05T15:24:59.370Z,38.00
2022-08-05T15:27:32.233Z,38.10
2022-08-05T15:30:06.599Z,37.60
2022-08-05T15:32:34.803Z,37.80
2022-08-05T15:35:10.575Z,38.20
2022-08-05T15:38:33.475Z,38.70
2022-08-05T15:40:58.793Z,38.30
2022-08-05T15:43:20.212Z,36.80
2022-08-05T15:46:00.123Z,39.20
2022-08-05T15:48:29.997Z,40.20
2022-08-05T15:51:03.302Z,41.10
2022-08-05T15:53:38.300Z,42.60
2022-08-05T15:56:18.884Z,42.00
2022-08-05T15:58:47.450Z,42.10
2022-08-05T16:01:18.136Z,42.50
2022-08-05T16:03:48.393Z,43.20
2022-08-05T16:06:19.610Z,43.90
2022-08-05T16:08:51.386Z,43.80
2022-08-05T16:11:42.508Z,44.50
2022-08-05T16:14:17.265Z,45.20
2022-08-05T16:16:47.281Z,45.90
2022-08-05T16:19:18.928Z,46.50
2022-08-05T16:22:01.195Z,47.70
2022-08-05T16:24:41.897Z,48.70
2022-08-05T16:27:32.262Z,49.50
2022-08-05T16:30:23.348Z,50.10
2022-08-05T16:32:56.116Z,50.60
2022-08-05T16:35:27.806Z,50.40
2022-08-05T16:38:11.925Z,51.20
2022-08-05T16:40:52.024Z,52.20
2022-08-05T16:43:25.037Z,52.60
2022-08-05T16:46:06.893Z,54.10
2022-08-05T16:48:39.393Z,56.10
2022-08-05T16:51:10.052Z,57.50
2022-08-05T16:54:03.141Z,58.80
2022-08-05T16:56:29.430Z,60.20
2022-08-05T16:58:58.220Z,61.10
2022-08-05T17:01:27.021Z,63.70
2022-08-05T17:04:16.462Z,64.20
2022-08-05T17:06:53.166Z,63.60
2022-08-05T17:09:23.054Z,63.40
2022-08-05T17:11:56.003Z,63.30
2022-08-05T17:14:37.137Z,63.80
2022-08-05T17:17:14.238Z,65.00
2022-08-05T17:19:46.113Z,65.40
2022-08-05T17:22:25.022Z,65.40
2022-08-05T17:24:56.872Z,69.20
2022-08-05T17:27:34.344Z,72.40
2022-08-05T17:30:03.389Z,71.50
2022-08-05T17:32:33.709Z,72.50
2022-08-05T17:35:04.267Z,76.30
2022-08-05T17:37:41.948Z,79.20
2022-08-05T17:40:15.939Z,79.20
2022-08-05T17:42:51.930Z,80.30
2022-08-05T17:45:22.395Z,84.90
2022-08-05T17:47:56.050Z,86.90
2022-08-05T17:50:28.517Z,86.90
2022-08-05T17:53:00.021Z,84.60
2022-08-05T17:55:38.388Z,86.60
2022-08-05T17:58:13.778Z,88.70
2022-08-05T18:00:47.797Z,88.50
2022-08-05T18:03:56.538Z,89.40
2022-08-05T18:06:11.915Z,89.20
2022-08-05T18:08:44.814Z,90.50
2022-08-05T18:11:23.329Z,90.60
2022-08-05T18:13:54.909Z,90.20
2022-08-05T18:16:23.600Z,91.10
2022-08-05T18:18:51.694Z,91.10
2022-08-05T18:21:22.893Z,89.50
2022-08-05T18:23:54.868Z,90.40
2022-08-05T18:26:27.593Z,90.50
2022-08-05T18:28:57.470Z,90.90
2022-08-05T18:31:25.830Z,90.80
2022-08-05T18:34:02.260Z,91.80
2022-08-05T18:36:31.885Z,91.10
2022-08-05T18:38:59.958Z,91.30
2022-08-05T18:41:54.956Z,91.40
2022-08-05T18:44:33.360Z,92.00
2022-08-05T18:47:04.958Z,92.50
2022-08-05T18:49:58.422Z,93.30
2022-08-05T18:52:50.840Z,92.20
2022-08-05T18:55:21.572Z,93.40
2022-08-05T18:57:53.838Z,93.20
2022-08-05T19:00:29.110Z,93.40
2022-08-05T19:03:04.262Z,93.40
2022-08-05T19:06:13.002Z,93.40
2022-08-05T19:08:30.467Z,93.20
2022-08-05T19:11:04.656Z,93.60
2022-08-05T19:13:35.732Z,93.20
2022-08-05T19:16:05.302Z,93.80
2022-08-05T19:18:53.945Z,93.80
2022-08-05T19:21:26.097Z,93.80
2022-08-05T19:24:07.164Z,93.60
2022-08-05T19:26:54.275Z,93.60
2022-08-05T19:29:26.764Z,94.20
2022-08-05T19:32:05.439Z,94.10
2022-08-05T19:34:36.898Z,93.90
2022-08-05T19:37:06.703Z,93.90
2022-08-05T19:39:45.685Z,94.50
2022-08-05T19:42:19.458Z,94.80
2022-08-05T19:45:05.749Z,94.90
2022-08-05T19:47:34.570Z,95.20
2022-08-05T19:50:07.907Z,95.80
2022-08-05T19:52:40.692Z,96.10
2022-08-05T19:56:14.416Z,96.10
2022-08-05T19:58:14.464Z,95.50
2022-08-05T20:00:47.857Z,95.30
2022-08-05T20:03:16.105Z,95.70
2022-08-05T20:05:51.312Z,96.00
2022-08-05T20:08:20.308Z,96.40
2022-08-05T20:10:50.009Z,96.30
2022-08-05T20:13:30.033Z,96.90
2022-08-05T20:16:07.800Z,97.30
2022-08-05T20:18:37.096Z,96.80
2022-08-05T20:21:06.568Z,96.70
2022-08-05T20:23:40.122Z,97.00
2022-08-05T20:26:21.649Z,97.20
2022-08-05T20:28:55.632Z,97.80
2022-08-05T20:31:37.313Z,99.10
2022-08-05T20:34:14.085Z,99.90
2022-08-05T20:36:43.828Z,99.90
2022-08-05T20:39:13.019Z,99.90
2022-08-05T20:41:45.049Z,99.90
2022-08-05T20:44:17.743Z,99.60
2022-08-05T20:46:52.751Z,99.80
2022-08-05T20:49:24.576Z,99.90
2022-08-05T20:51:54.614Z,99.80
2022-08-05T20:54:43.631Z,99.10
2022-08-05T20:57:42.628Z,99.30
2022-08-05T21:00:20.787Z,98.30
2022-08-05T21:03:01.186Z,98.30
2022-08-05T21:05:47.665Z,98.30
2022-08-05T21:08:17.961Z,98.30
2022-08-05T21:10:48.583Z,98.90
2022-08-05T21:13:26.567Z,99.20
2022-08-05T21:16:08.557Z,99.80
2022-08-05T21:18:36.683Z,99.30
2022-08-05T21:21:05.329Z,99.60
2022-08-05T21:23:37.031Z,99.10
2022-08-05T21:26:08.107Z,99.20
2022-08-05T21:28:47.939Z,99.10
2022-08-05T21:31:19.101Z,99.60
2022-08-05T21:33:49.777Z,99.90
2022-08-05T21:36:29.989Z,99.90
2022-08-05T21:39:01.127Z,99.50
2022-08-05T21:41:34.225Z,99.10
2022-08-05T21:44:05.855Z,98.70
2022-08-05T21:46:34.857Z,98.60
2022-08-05T21:49:07.290Z,98.40
2022-08-05T21:52:27.156Z,97.80
2022-08-05T21:54:27.983Z,98.30
2022-08-05T21:57:29.644Z,98.90
2022-08-05T22:00:10.701Z,99.40
2022-08-05T22:02:39.386Z,99.50
2022-08-05T22:05:15.167Z,99.80
2022-08-05T22:07:58.904Z,99.50
2022-08-05T22:10:28.318Z,99.70
2022-08-05T22:12:58.720Z,99.90
2022-08-05T22:16:01.703Z,99.90
2022-08-05T22:18:19.591Z,99.90
2022-08-05T22:20:55.089Z,99.70
2022-08-05T22:24:03.201Z,99.90
2022-08-05T22:26:49.864Z,99.90
2022-08-05T22:29:26.259Z,99.90
2022-08-05T22:31:59.593Z,99.90
2022-08-05T22:34:35.748Z,99.90
2022-08-05T22:37:08.258Z,99.90
2022-08-05T22:39:42.797Z,99.90
2022-08-05T22:42:26.122Z,99.90
2022-08-05T22:44:56.794Z,99.70
2022-08-05T22:47:29.365Z,99.60
2022-08-05T22:50:19.698Z,99.90
2022-08-05T22:52:48.114Z,99.90
2022-08-05T22:55:19.608Z,99.90
2022-08-05T22:57:49.333Z,99.90
2022-08-05T23:00:20.821Z,99.90
2022-08-05T23:02:52.161Z,99.90
2022-08-05T23:05:21.902Z,99.90
2022-08-05T23:07:51.196Z,99.90
2022-08-05T23:10:20.822Z,99.90
2022-08-05T23:12:55.013Z,99.90
2022-08-05T23:15:27.047Z,99.90
2022-08-05T23:18:03.548Z,99.90
2022-08-05T23:20:37.236Z,99.90
2022-08-05T23:23:08.697Z,99.80
2022-08-05T23:25:51.688Z,99.90
2022-08-05T23:28:27.637Z,99.90
2022-08-05T23:31:16.444Z,99.90
2022-08-05T23:34:04.199Z,99.90
2022-08-05T23:36:39.866Z,99.90
2022-08-05T23:39:17.097Z,99.90
2022-08-05T23:41:52.064Z,99.90
2022-08-05T23:44:25.011Z,99.90
2022-08-05T23:46:56.095Z,99.90
2022-08-05T23:49:35.702Z,99.90
2022-08-05T23:52:22.129Z,99.90
2022-08-05T23:54:54.731Z,99.90
2022-08-05T23:57:24.575Z,99.90
